Time;durP1;ratioP1;P1;durP2;ratioP2;P2;SDS_P1;SDS_P2;PMS_P1;PMS_P2;Temp;Humidity;BMP_temperature;BMP_pressure;BME280_temperature;BME280_humidity;BME280_pressure;Samples;Min_cycle;Max_cycle;Signal;HPM_P1;HPM_P2
2023/05/16 00:01:49;;;;;;;2.17;1.20;;;14.10;57.60;;;;;;5012068;28;20197;-50
2023/05/16 00:04:20;;;;;;;2.17;1.50;;;14.10;57.70;;;;;;5011329;28;20255;-49
2023/05/16 00:06:51;;;;;;;1.98;1.38;;;14.20;57.70;;;;;;5011874;28;20201;-47
2023/05/16 00:09:21;;;;;;;2.13;1.20;;;14.20;57.70;;;;;;5011950;28;20216;-48
2023/05/16 00:11:52;;;;;;;2.47;1.50;;;14.20;57.80;;;;;;5011426;28;20189;-48
2023/05/16 00:14:25;;;;;;;2.45;1.02;;;14.20;57.80;;;;;;5011676;28;20204;-51
2023/05/16 00:16:58;;;;;;;2.40;1.30;;;14.20;57.80;;;;;;5011787;28;20661;-54
2023/05/16 00:19:29;;;;;;;2.53;1.17;;;14.20;57.80;;;;;;5011451;28;20260;-51
2023/05/16 00:21:59;;;;;;;2.70;1.08;;;14.30;57.90;;;;;;5011005;28;20197;-50
2023/05/16 00:24:30;;;;;;;2.50;1.02;;;14.30;57.90;;;;;;5011872;28;20196;-51
2023/05/16 00:27:02;;;;;;;1.77;1.10;;;14.30;57.90;;;;;;5011747;28;20192;-51
2023/05/16 00:29:33;;;;;;;1.58;1.33;;;14.30;57.90;;;;;;5011221;28;20279;-51
2023/05/16 00:32:07;;;;;;;2.10;1.23;;;14.40;57.90;;;;;;5010933;28;20197;-47
2023/05/16 00:34:38;;;;;;;1.33;1.02;;;14.40;57.90;;;;;;5011241;28;20196;-54
2023/05/16 00:37:08;;;;;;;1.45;1.20;;;14.40;57.90;;;;;;5010989;28;20547;-48
2023/05/16 00:39:39;;;;;;;3.13;1.08;;;14.40;57.90;;;;;;5011287;28;20630;-51
2023/05/16 00:42:10;;;;;;;2.15;1.17;;;14.50;58.00;;;;;;5011523;28;20200;-50
2023/05/16 00:44:41;;;;;;;2.08;1.10;;;14.50;58.00;;;;;;5011738;28;20200;-53
2023/05/16 00:47:13;;;;;;;2.17;1.27;;;14.50;58.10;;;;;;5011801;28;20196;-50
2023/05/16 00:49:44;;;;;;;0.90;0.75;;;14.50;58.00;;;;;;5013385;28;20225;-52
2023/05/16 00:52:15;;;;;;;2.38;1.23;;;14.50;58.00;;;;;;5015450;28;20196;-51
2023/05/16 00:54:46;;;;;;;2.17;1.23;;;14.60;58.10;;;;;;5015582;28;20569;-51
2023/05/16 00:57:17;;;;;;;2.25;1.38;;;14.60;58.10;;;;;;5015370;28;20205;-53
2023/05/16 00:59:48;;;;;;;2.80;1.02;;;14.60;58.10;;;;;;5015626;28;20602;-52
2023/05/16 01:02:21;;;;;;;1.52;1.05;;;14.70;58.20;;;;;;5015522;28;20231;-50
2023/05/16 01:04:51;;;;;;;1.60;1.08;;;14.60;58.10;;;;;;5015326;28;20201;-50
2023/05/16 01:07:22;;;;;;;1.58;1.00;;;14.70;58.10;;;;;;5015250;28;20232;-50
2023/05/16 01:09:53;;;;;;;1.50;1.00;;;14.70;58.20;;;;;;5015089;28;20221;-54
2023/05/16 01:12:31;;;;;;;1.88;0.98;;;14.70;58.20;;;;;;5014946;28;20215;-47
2023/05/16 01:15:08;;;;;;;1.40;1.00;;;14.80;58.30;;;;;;5015442;28;20193;-52
2023/05/16 01:17:49;;;;;;;1.95;1.15;;;14.80;58.30;;;;;;5015130;28;20216;-54
2023/05/16 01:20:30;;;;;;;1.40;0.98;;;14.80;58.20;;;;;;5014958;28;20223;-50
2023/05/16 01:23:21;;;;;;;1.17;0.90;;;14.90;58.20;;;;;;5014782;28;20672;-55
2023/05/16 01:26:03;;;;;;;1.20;1.05;;;14.90;58.20;;;;;;5014574;28;20212;-52
2023/05/16 01:28:36;;;;;;;1.65;1.20;;;14.90;58.20;;;;;;5014301;28;20537;-55
2023/05/16 01:31:07;;;;;;;1.30;1.10;;;15.00;58.20;;;;;;5014436;28;20540;-51
2023/05/16 01:33:38;;;;;;;1.92;0.90;;;15.00;58.30;;;;;;5014629;28;20606;-52
2023/05/16 01:36:17;;;;;;;1.45;1.00;;;15.00;58.30;;;;;;5014646;28;20251;-55
2023/05/16 01:39:03;;;;;;;1.35;0.90;;;15.00;58.90;;;;;;5014316;28;20224;-54
2023/05/16 01:41:42;;;;;;;1.40;1.02;;;15.10;58.30;;;;;;5014549;28;20228;-52
2023/05/16 01:44:23;;;;;;;1.15;0.90;;;15.10;58.30;;;;;;5014441;28;20704;-55
2023/05/16 01:46:58;;;;;;;1.67;0.93;;;15.10;58.30;;;;;;5014629;28;20200;-55
2023/05/16 01:49:32;;;;;;;1.73;1.10;;;15.20;58.30;;;;;;5014131;28;20243;-52
2023/05/16 01:52:12;;;;;;;1.20;0.98;;;15.20;58.30;;;;;;5014666;28;20675;-54
2023/05/16 01:54:47;;;;;;;1.20;1.00;;;15.20;58.30;;;;;;5014442;28;20211;-56
2023/05/16 01:57:19;;;;;;;1.55;1.10;;;15.30;58.30;;;;;;5014369;28;20204;-48
2023/05/16 01:59:51;;;;;;;1.13;0.95;;;15.30;58.20;;;;;;5012358;28;20579;-49
2023/05/16 02:02:22;;;;;;;1.90;1.00;;;15.30;58.30;;;;;;5013242;28;20201;-48
2023/05/16 02:04:53;;;;;;;1.42;1.08;;;15.40;58.30;;;;;;5014021;28;20228;-47
2023/05/16 02:07:24;;;;;;;2.15;1.20;;;15.40;58.30;;;;;;5013713;28;20189;-50
2023/05/16 02:09:55;;;;;;;3.50;1.08;;;15.40;58.30;;;;;;4994252;28;20224;-48
2023/05/16 02:12:25;;;;;;;1.98;1.00;;;15.50;58.30;;;;;;4996949;28;20197;-50
2023/05/16 02:14:58;;;;;;;2.10;1.08;;;15.50;58.30;;;;;;5014020;28;20200;-53
2023/05/16 02:17:29;;;;;;;1.45;1.23;;;15.50;58.30;;;;;;5014136;28;20204;-47
2023/05/16 02:20:05;;;;;;;1.52;1.00;;;15.60;58.30;;;;;;5013137;28;20213;-51
2023/05/16 02:22:36;;;;;;;1.85;1.52;;;15.60;58.30;;;;;;5013696;28;20203;-51
2023/05/16 02:25:07;;;;;;;3.58;1.77;;;15.60;58.30;;;;;;5013398;28;20201;-51
2023/05/16 02:27:38;;;;;;;2.88;1.83;;;15.60;58.30;;;;;;5013284;28;20200;-48
2023/05/16 02:30:12;;;;;;;2.38;1.65;;;15.70;58.40;;;;;;5013568;28;20220;-48
2023/05/16 02:32:43;;;;;;;3.33;2.17;;;15.70;58.40;;;;;;5013703;28;20239;-50
2023/05/16 02:35:14;;;;;;;3.28;1.80;;;15.70;58.40;;;;;;5013401;28;20744;-49
2023/05/16 02:37:45;;;;;;;4.30;2.42;;;15.80;58.40;;;;;;5013098;28;20197;-49
2023/05/16 02:40:16;;;;;;;4.45;2.08;;;15.80;58.40;;;;;;5013527;28;20252;-51
2023/05/16 02:42:48;;;;;;;4.50;2.20;;;15.90;58.40;;;;;;5013580;28;20204;-52
2023/05/16 02:45:20;;;;;;;3.50;2.20;;;15.90;58.40;;;;;;5013622;28;20212;-51
2023/05/16 02:47:51;;;;;;;4.28;2.22;;;16.00;58.50;;;;;;5013006;28;20209;-51
2023/05/16 02:50:22;;;;;;;3.63;2.28;;;16.00;58.40;;;;;;5012445;28;20224;-48
2023/05/16 02:52:52;;;;;;;4.18;2.38;;;16.10;58.40;;;;;;5013373;28;20193;-51
2023/05/16 02:55:23;;;;;;;4.03;2.50;;;16.10;58.40;;;;;;5012864;28;20284;-50
2023/05/16 02:57:53;;;;;;;4.05;2.55;;;16.10;58.40;;;;;;5012761;28;20255;-48
2023/05/16 03:00:26;;;;;;;4.10;2.58;;;16.20;58.40;;;;;;5013027;28;20217;-53
2023/05/16 03:02:57;;;;;;;4.40;2.85;;;16.20;58.30;;;;;;5012948;28;20197;-50
2023/05/16 03:05:27;;;;;;;5.40;2.70;;;16.30;58.30;;;;;;5012519;28;20204;-50
2023/05/16 03:07:58;;;;;;;5.18;3.17;;;16.30;58.40;;;;;;5012840;28;20200;-51
2023/05/16 03:10:29;;;;;;;4.95;3.20;;;16.30;58.30;;;;;;5012944;28;20221;-48
2023/05/16 03:12:59;;;;;;;5.68;3.72;;;16.30;58.30;;;;;;5012604;28;20204;-49
2023/05/16 03:15:32;;;;;;;6.43;3.72;;;16.40;58.40;;;;;;5013027;28;20211;-51
2023/05/16 03:18:02;;;;;;;5.95;3.95;;;16.40;58.40;;;;;;5013039;28;20200;-50
2023/05/16 03:20:33;;;;;;;6.00;3.83;;;16.40;58.40;;;;;;5012711;28;20216;-51
2023/05/16 03:23:06;;;;;;;6.18;3.90;;;16.50;58.40;;;;;;5012552;28;20545;-50
2023/05/16 03:25:37;;;;;;;5.25;3.95;;;16.50;58.40;;;;;;5012857;28;20724;-48
2023/05/16 03:28:09;;;;;;;6.40;3.55;;;16.60;58.30;;;;;;5012669;28;20201;-48
2023/05/16 03:30:42;;;;;;;5.25;3.47;;;16.60;58.30;;;;;;5012352;28;20626;-50
2023/05/16 03:33:15;;;;;;;5.72;3.60;;;16.70;58.30;;;;;;5012193;28;20196;-53
2023/05/16 03:35:47;;;;;;;6.10;3.55;;;16.70;58.20;;;;;;5011917;28;20201;-53
2023/05/16 03:38:18;;;;;;;5.32;3.53;;;16.70;58.20;;;;;;5012281;28;20294;-48
2023/05/16 03:40:49;;;;;;;5.60;3.55;;;16.70;58.10;;;;;;5012429;28;20252;-49
2023/05/16 03:43:19;;;;;;;5.05;3.25;;;16.80;58.10;;;;;;5012291;28;20722;-52
2023/05/16 03:45:52;;;;;;;6.93;3.45;;;16.80;58.10;;;;;;5012428;28;20196;-53
2023/05/16 03:48:23;;;;;;;6.35;3.95;;;16.80;58.10;;;;;;5011948;28;20704;-50
2023/05/16 03:50:53;;;;;;;4.88;3.85;;;16.90;58.10;;;;;;5012130;28;20228;-50
2023/05/16 03:53:24;;;;;;;6.68;4.93;;;16.90;58.10;;;;;;5012880;28;20200;-51
2023/05/16 03:55:55;;;;;;;7.32;5.05;;;16.90;58.10;;;;;;5012287;28;20200;-53
2023/05/16 03:58:25;;;;;;;8.60;4.97;;;17.00;58.10;;;;;;5012119;28;20232;-54
2023/05/16 04:00:58;;;;;;;7.38;5.50;;;17.00;58.10;;;;;;5011767;28;20271;-52
2023/05/16 04:03:29;;;;;;;8.32;5.80;;;17.00;58.10;;;;;;5011039;28;20189;-52
2023/05/16 04:05:59;;;;;;;5.90;4.63;;;17.10;58.10;;;;;;5012003;28;20309;-56
2023/05/16 04:08:30;;;;;;;8.55;5.70;;;17.10;58.10;;;;;;5011976;28;20284;-54
2023/05/16 04:11:01;;;;;;;7.95;5.80;;;17.10;58.00;;;;;;5011402;28;20283;-53
2023/05/16 04:13:31;;;;;;;8.50;6.28;;;17.20;58.00;;;;;;5011849;28;20208;-54
2023/05/16 04:16:04;;;;;;;9.13;6.55;;;17.20;58.00;;;;;;5012330;28;20570;-50
2023/05/16 04:18:35;;;;;;;7.53;5.95;;;17.20;57.90;;;;;;5011861;28;20221;-51
2023/05/16 04:21:06;;;;;;;8.68;7.03;;;17.30;57.90;;;;;;5012080;28;20251;-51
2023/05/16 04:23:37;;;;;;;7.88;6.13;;;17.30;57.90;;;;;;5010960;28;20200;-50
2023/05/16 04:26:07;;;;;;;8.60;6.70;;;17.30;57.80;;;;;;5011527;28;20237;-50
2023/05/16 04:28:38;;;;;;;7.57;6.38;;;17.40;57.90;;;;;;5011442;28;20780;-55
2023/05/16 04:31:10;;;;;;;9.70;6.65;;;17.40;57.90;;;;;;5011183;28;20653;-55
2023/05/16 04:33:41;;;;;;;7.45;6.47;;;17.40;57.80;;;;;;5011445;28;20211;-56
2023/05/16 04:36:12;;;;;;;8.35;6.32;;;17.40;57.80;;;;;;5011621;28;20204;-55
2023/05/16 04:38:42;;;;;;;9.35;5.88;;;17.50;57.80;;;;;;5011694;28;20256;-54
2023/05/16 04:41:13;;;;;;;7.65;5.72;;;17.50;57.80;;;;;;5011541;28;20201;-51
2023/05/16 04:43:44;;;;;;;7.45;5.70;;;17.50;57.70;;;;;;5011438;28;20208;-49
2023/05/16 04:46:18;;;;;;;7.78;5.95;;;17.50;57.70;;;;;;5011263;28;20204;-52
2023/05/16 04:48:48;;;;;;;6.40;5.25;;;17.50;57.70;;;;;;5011125;28;20204;-50
2023/05/16 04:51:19;;;;;;;7.07;6.00;;;17.50;57.60;;;;;;5011263;28;20200;-54
2023/05/16 04:53:49;;;;;;;8.45;6.10;;;17.50;57.60;;;;;;5011533;28;20255;-52
2023/05/16 04:56:21;;;;;;;7.40;5.72;;;17.60;57.60;;;;;;5011560;28;20565;-51
2023/05/16 04:58:51;;;;;;;7.68;6.10;;;17.60;57.60;;;;;;5011002;28;20589;-53
2023/05/16 05:01:24;;;;;;;7.07;5.50;;;17.60;57.40;;;;;;5010881;28;20197;-54
2023/05/16 05:03:54;;;;;;;7.35;5.63;;;17.60;57.30;;;;;;5011413;28;20196;-56
2023/05/16 05:06:25;;;;;;;7.82;6.10;;;17.60;57.30;;;;;;5011513;28;20204;-55
2023/05/16 05:08:57;;;;;;;6.88;5.32;;;17.60;57.30;;;;;;5011254;28;20193;-52
2023/05/16 05:11:28;;;;;;;6.35;5.20;;;17.60;57.30;;;;;;5011305;28;20197;-57
2023/05/16 05:13:58;;;;;;;8.52;5.45;;;17.60;57.30;;;;;;5011185;28;20228;-50
2023/05/16 05:16:31;;;;;;;7.25;5.97;;;17.60;57.30;;;;;;5011079;28;20204;-55
2023/05/16 05:19:02;;;;;;;6.63;5.10;;;17.60;57.30;;;;;;5010853;28;20356;-51
2023/05/16 05:21:33;;;;;;;6.40;5.18;;;17.60;57.30;;;;;;5011157;28;20271;-53
2023/05/16 05:24:04;;;;;;;6.50;5.10;;;17.60;57.30;;;;;;5011197;28;20204;-52
2023/05/16 05:26:34;;;;;;;7.38;5.25;;;17.50;57.20;;;;;;5011435;28;20196;-52
2023/05/16 05:29:05;;;;;;;5.57;5.00;;;17.50;57.20;;;;;;5011124;28;20224;-56
2023/05/16 05:31:37;;;;;;;6.78;5.22;;;17.50;57.10;;;;;;5011130;28;20201;-56
2023/05/16 05:34:08;;;;;;;6.15;4.80;;;17.50;57.00;;;;;;5011369;28;20274;-56
2023/05/16 05:36:39;;;;;;;6.82;4.85;;;17.50;56.90;;;;;;5014970;28;20197;-53
2023/05/16 05:39:09;;;;;;;6.45;5.07;;;17.50;56.80;;;;;;5014673;28;20229;-56
2023/05/16 05:41:40;;;;;;;6.30;5.20;;;17.50;56.80;;;;;;5014689;28;20203;-53
2023/05/16 05:44:11;;;;;;;6.75;5.10;;;17.50;56.80;;;;;;5014197;28;20232;-56
2023/05/16 05:46:44;;;;;;;5.72;4.80;;;17.50;56.70;;;;;;5014528;28;20232;-57
2023/05/16 05:49:15;;;;;;;5.90;5.20;;;17.50;56.70;;;;;;5014150;28;20286;-55
2023/05/16 05:51:45;;;;;;;7.43;4.50;;;17.50;56.70;;;;;;5014497;28;20204;-54
2023/05/16 05:54:16;;;;;;;6.28;4.72;;;17.40;56.60;;;;;;5014772;28;20904;-55
2023/05/16 05:56:47;;;;;;;5.72;4.68;;;17.40;56.80;;;;;;5014270;28;20208;-53
2023/05/16 05:59:18;;;;;;;5.65;4.65;;;17.40;56.70;;;;;;5013995;28;20251;-55
2023/05/16 06:01:51;;;;;;;6.00;4.97;;;17.40;56.70;;;;;;5013768;28;20204;-56
2023/05/16 06:04:22;;;;;;;6.28;4.95;;;17.40;56.70;;;;;;5014324;28;20657;-56
2023/05/16 06:06:53;;;;;;;6.75;4.85;;;17.40;56.70;;;;;;5014319;28;20204;-48
2023/05/16 06:09:24;;;;;;;6.35;4.40;;;17.40;56.60;;;;;;5013929;28;20221;-52
2023/05/16 06:11:55;;;;;;;6.75;4.72;;;17.40;56.70;;;;;;5013636;28;20205;-49
2023/05/16 06:14:26;;;;;;;7.55;4.70;;;17.40;56.60;;;;;;5012633;28;20200;-54
2023/05/16 06:16:58;;;;;;;6.00;4.53;;;17.30;56.60;;;;;;5014048;28;20590;-53
2023/05/16 06:19:29;;;;;;;6.28;5.00;;;17.30;56.60;;;;;;5013498;28;20228;-49
2023/05/16 06:21:59;;;;;;;5.88;4.60;;;17.30;56.60;;;;;;5013583;28;20201;-54
2023/05/16 06:24:30;;;;;;;5.40;4.65;;;17.30;56.60;;;;;;5013678;28;20200;-48
2023/05/16 06:27:01;;;;;;;6.55;4.82;;;17.30;56.60;;;;;;5013903;28;20257;-48
2023/05/16 06:29:31;;;;;;;6.03;4.80;;;17.20;56.60;;;;;;5013483;28;20221;-49
2023/05/16 06:32:04;;;;;;;6.25;4.70;;;17.20;56.60;;;;;;5012927;28;20204;-50
2023/05/16 06:34:34;;;;;;;5.75;4.32;;;17.20;56.50;;;;;;5000059;28;20201;-52
2023/05/16 06:37:05;;;;;;;5.85;4.63;;;17.20;56.60;;;;;;4993401;28;20202;-49
2023/05/16 06:39:35;;;;;;;4.95;4.22;;;17.20;56.60;;;;;;4993352;28;20229;-53
2023/05/16 06:42:06;;;;;;;4.18;3.78;;;17.10;56.50;;;;;;5003829;28;20196;-52
2023/05/16 06:44:37;;;;;;;4.60;3.80;;;17.10;56.50;;;;;;5013195;28;20260;-51
2023/05/16 06:47:10;;;;;;;5.85;4.57;;;17.10;56.60;;;;;;5012651;28;20205;-51
2023/05/16 06:49:40;;;;;;;5.95;4.25;;;17.10;56.50;;;;;;5012931;28;20236;-51
2023/05/16 06:52:11;;;;;;;5.95;4.15;;;17.10;56.50;;;;;;5012873;28;20212;-51
2023/05/16 06:54:41;;;;;;;5.15;4.43;;;17.10;56.50;;;;;;5013142;28;20598;-52
2023/05/16 06:57:12;;;;;;;4.75;4.00;;;17.10;56.50;;;;;;5013304;28;20192;-52
2023/05/16 06:59:43;;;;;;;5.10;3.75;;;17.00;56.50;;;;;;5013036;28;20232;-50
2023/05/16 07:02:15;;;;;;;5.88;4.20;;;17.00;56.50;;;;;;5012784;28;20201;-54
2023/05/16 07:04:46;;;;;;;4.90;3.83;;;17.00;56.50;;;;;;5013424;28;20193;-54
2023/05/16 07:07:17;;;;;;;4.32;3.92;;;17.00;56.50;;;;;;5012426;28;20185;-51
2023/05/16 07:09:47;;;;;;;4.65;3.78;;;17.00;56.50;;;;;;5012791;28;20217;-52
2023/05/16 07:12:18;;;;;;;4.03;3.63;;;16.90;56.50;;;;;;5012832;28;20204;-53
2023/05/16 07:14:49;;;;;;;4.90;4.35;;;16.90;56.50;;;;;;5013449;28;20672;-51
2023/05/16 07:17:21;;;;;;;4.28;3.65;;;16.90;56.50;;;;;;5012954;28;20200;-50
2023/05/16 07:19:52;;;;;;;5.78;4.00;;;16.90;56.50;;;;;;5012741;28;20229;-51
2023/05/16 07:22:23;;;;;;;5.15;3.67;;;16.90;56.50;;;;;;5012552;28;20205;-53
2023/05/16 07:24:56;;;;;;;5.78;4.00;;;16.90;56.50;;;;;;5012761;28;20208;-52
2023/05/16 07:27:26;;;;;;;5.10;3.63;;;16.90;56.60;;;;;;5012924;28;20561;-52
2023/05/16 07:29:57;;;;;;;4.63;3.63;;;16.80;56.50;;;;;;5012386;28;20220;-55
2023/05/16 07:32:29;;;;;;;5.50;4.10;;;16.80;56.50;;;;;;5012450;28;20593;-53
2023/05/16 07:35:00;;;;;;;4.25;3.85;;;16.80;56.50;;;;;;5011718;28;20596;-57
2023/05/16 07:37:30;;;;;;;4.70;3.50;;;16.80;56.50;;;;;;5011558;28;20199;-52
2023/05/16 07:40:02;;;;;;;4.55;3.55;;;16.80;56.60;;;;;;5011913;28;20232;-50
2023/05/16 07:42:33;;;;;;;4.30;3.70;;;16.80;56.50;;;;;;5012201;28;20197;-55
2023/05/16 07:45:04;;;;;;;4.25;3.83;;;16.80;56.60;;;;;;5012493;28;20624;-53
2023/05/16 07:47:36;;;;;;;4.75;3.72;;;16.80;56.60;;;;;;5012480;28;20229;-51
2023/05/16 07:50:07;;;;;;;4.53;3.60;;;16.70;56.60;;;;;;5011598;28;20314;-49
2023/05/16 07:52:38;;;;;;;3.70;3.30;;;16.70;56.60;;;;;;5012873;28;20201;-51
2023/05/16 07:55:09;;;;;;;4.72;3.33;;;16.70;56.60;;;;;;5012015;28;20205;-48
2023/05/16 07:57:40;;;;;;;3.78;3.40;;;16.70;56.60;;;;;;5010853;28;20208;-52
2023/05/16 08:00:13;;;;;;;5.13;3.53;;;16.70;56.60;;;;;;5011365;28;20244;-51
2023/05/16 08:02:46;;;;;;;4.45;3.40;;;16.70;56.60;;;;;;5011982;28;20380;-49
2023/05/16 08:05:16;;;;;;;4.13;3.53;;;16.70;56.60;;;;;;5011364;28;20192;-49
2023/05/16 08:07:47;;;;;;;4.47;3.22;;;16.70;56.60;;;;;;5011670;28;20267;-52
2023/05/16 08:10:18;;;;;;;4.68;3.70;;;16.60;56.60;;;;;;5011469;28;20228;-54
2023/05/16 08:12:48;;;;;;;5.45;3.47;;;16.70;56.60;;;;;;5009589;28;20201;-49
2023/05/16 08:15:19;;;;;;;3.33;3.00;;;16.60;56.60;;;;;;5011454;28;20632;-49
2023/05/16 08:17:52;;;;;;;3.92;3.15;;;16.60;56.60;;;;;;5010548;28;20679;-49
2023/05/16 08:20:22;;;;;;;4.32;3.40;;;16.60;56.60;;;;;;5011331;28;20566;-52
2023/05/16 08:22:53;;;;;;;4.90;3.75;;;16.60;56.60;;;;;;5011774;28;20228;-49
2023/05/16 08:25:24;;;;;;;3.28;2.97;;;16.50;56.50;;;;;;5011267;28;20724;-50
2023/05/16 08:27:55;;;;;;;4.15;3.20;;;16.50;56.60;;;;;;5011238;28;20196;-51
2023/05/16 08:30:25;;;;;;;3.15;2.70;;;16.50;56.60;;;;;;5011478;28;20228;-51
2023/05/16 08:32:58;;;;;;;3.85;3.17;;;16.50;56.60;;;;;;5011542;28;20196;-52
2023/05/16 08:35:28;;;;;;;3.47;3.17;;;16.50;56.60;;;;;;5010617;28;20197;-50
2023/05/16 08:37:59;;;;;;;4.72;3.20;;;16.50;56.60;;;;;;5011145;28;20204;-49
2023/05/16 08:40:30;;;;;;;3.67;3.03;;;16.50;56.60;;;;;;5011511;28;20708;-48
2023/05/16 08:43:01;;;;;;;4.00;3.13;;;16.50;56.60;;;;;;5011726;28;20207;-52
2023/05/16 08:45:33;;;;;;;3.17;2.88;;;16.40;56.50;;;;;;5011611;28;20198;-48
2023/05/16 08:48:06;;;;;;;3.45;3.13;;;16.40;56.50;;;;;;5011648;28;20192;-52
2023/05/16 08:50:38;;;;;;;4.25;2.83;;;16.40;56.50;;;;;;5010991;28;20315;-52
2023/05/16 08:53:11;;;;;;;3.88;2.95;;;16.40;56.50;;;;;;5011537;28;20196;-53
2023/05/16 08:55:45;;;;;;;3.00;2.58;;;16.40;56.60;;;;;;5011457;28;20656;-52
2023/05/16 08:58:16;;;;;;;3.38;3.00;;;16.40;56.60;;;;;;5011403;28;20613;-48
2023/05/16 09:00:47;;;;;;;3.10;2.78;;;16.40;56.60;;;;;;5011341;28;20235;-48
2023/05/16 09:03:22;;;;;;;3.35;2.63;;;16.40;56.60;;;;;;5011582;28;20193;-52
2023/05/16 09:05:52;;;;;;;3.20;2.90;;;16.30;56.60;;;;;;5009941;28;20674;-50
2023/05/16 09:08:23;;;;;;;3.55;2.75;;;16.30;56.60;;;;;;5011010;28;20196;-49
2023/05/16 09:10:54;;;;;;;3.03;2.58;;;16.30;56.60;;;;;;5014285;28;20299;-51
2023/05/16 09:13:25;;;;;;;4.70;3.00;;;16.30;56.60;;;;;;5015352;28;20211;-53
2023/05/16 09:16:11;;;;;;;3.13;2.60;;;16.30;56.60;;;;;;5014799;28;20201;-53
2023/05/16 09:18:45;;;;;;;3.17;2.88;;;16.30;56.60;;;;;;5014739;28;20291;-53
2023/05/16 09:21:16;;;;;;;3.50;2.75;;;16.30;56.60;;;;;;5014998;28;20670;-56
2023/05/16 09:23:49;;;;;;;3.75;2.67;;;16.30;56.60;;;;;;5014974;28;20697;-56
2023/05/16 09:26:21;;;;;;;3.83;2.80;;;16.30;56.60;;;;;;5014824;28;20200;-54
2023/05/16 09:28:54;;;;;;;3.05;2.50;;;16.20;56.50;;;;;;5014971;28;20197;-54
2023/05/16 09:31:27;;;;;;;3.30;2.55;;;16.20;56.60;;;;;;5015013;28;20207;-54
2023/05/16 09:34:00;;;;;;;2.55;2.35;;;16.20;56.60;;;;;;5014535;28;20240;-51
2023/05/16 09:36:33;;;;;;;3.28;2.40;;;16.20;57.20;;;;;;5015347;28;20661;-50
2023/05/16 09:39:04;;;;;;;3.50;2.67;;;16.20;56.60;;;;;;5014768;28;20220;-52
2023/05/16 09:41:37;;;;;;;3.25;2.50;;;16.20;56.60;;;;;;5014726;28;20251;-53
2023/05/16 09:44:08;;;;;;;2.80;2.10;;;16.10;56.60;;;;;;5014490;28;20208;-52
2023/05/16 09:46:40;;;;;;;3.58;2.63;;;16.10;56.60;;;;;;5013936;28;20192;-55
2023/05/16 09:49:15;;;;;;;3.47;2.75;;;16.10;56.60;;;;;;5013847;28;20228;-51
2023/05/16 09:51:47;;;;;;;4.72;2.80;;;16.10;56.60;;;;;;5014548;28;20223;-55
2023/05/16 09:54:18;;;;;;;2.90;2.60;;;16.10;56.60;;;;;;5014977;28;20665;-57
2023/05/16 09:56:54;;;;;;;3.13;2.67;;;16.10;56.60;;;;;;5014411;28;20208;-56
2023/05/16 09:59:25;;;;;;;3.80;2.75;;;16.10;56.60;;;;;;5014369;28;20227;-53
2023/05/16 10:01:56;;;;;;;3.58;2.50;;;16.10;56.70;;;;;;5013943;28;20228;-52
2023/05/16 10:04:29;;;;;;;3.17;2.72;;;16.00;56.60;;;;;;5013784;28;20193;-55
2023/05/16 10:07:02;;;;;;;2.75;2.50;;;16.10;56.60;;;;;;5013936;28;20188;-56
2023/05/16 10:09:35;;;;;;;3.13;2.50;;;16.00;56.60;;;;;;5013764;28;20224;-52
2023/05/16 10:12:09;;;;;;;3.03;2.70;;;16.00;56.60;;;;;;5014213;28;20547;-52
2023/05/16 10:14:40;;;;;;;2.90;2.45;;;16.00;56.60;;;;;;5014239;28;20203;-54
2023/05/16 10:17:14;;;;;;;3.15;2.40;;;16.00;56.60;;;;;;5013941;28;20201;-49
2023/05/16 10:19:47;;;;;;;3.55;2.60;;;16.00;56.60;;;;;;5012737;28;20247;-50
2023/05/16 10:22:18;;;;;;;3.67;2.88;;;15.90;56.60;;;;;;5012755;28;20233;-48
2023/05/16 10:24:54;;;;;;;3.40;2.45;;;15.90;56.60;;;;;;5013767;28;20549;-49
2023/05/16 10:27:26;;;;;;;3.75;3.03;;;15.90;56.60;;;;;;5013267;28;20207;-48
2023/05/16 10:29:57;;;;;;;3.90;2.70;;;15.90;56.50;;;;;;5013568;28;20712;-50
2023/05/16 10:32:29;;;;;;;3.67;2.80;;;15.90;56.60;;;;;;5012800;28;20629;-48
2023/05/16 10:35:02;;;;;;;3.63;2.90;;;15.90;56.60;;;;;;5012375;28;20283;-49
2023/05/16 10:37:33;;;;;;;3.33;2.90;;;15.80;56.50;;;;;;5013008;28;20486;-48
2023/05/16 10:40:06;;;;;;;4.20;3.03;;;15.80;56.50;;;;;;5013366;28;20870;-49
2023/05/16 10:42:37;;;;;;;3.83;2.95;;;15.80;56.50;;;;;;5013463;28;20216;-48
2023/05/16 10:45:19;;;;;;;3.83;2.88;;;15.80;56.50;;;;;;5013576;28;20205;-52
2023/05/16 10:47:55;;;;;;;3.83;3.08;;;15.80;56.50;;;;;;5013473;28;20201;-48
2023/05/16 10:50:39;;;;;;;5.05;3.10;;;15.80;56.50;;;;;;5012911;28;20216;-49
2023/05/16 10:53:23;;;;;;;4.13;2.90;;;15.70;56.40;;;;;;5013783;28;20232;-50
2023/05/16 10:56:11;;;;;;;3.67;2.88;;;15.70;56.40;;;;;;5013300;28;20216;-50
2023/05/16 10:58:49;;;;;;;4.15;2.85;;;15.70;56.40;;;;;;5013194;28;20251;-49
2023/05/16 11:01:25;;;;;;;4.47;2.97;;;15.70;56.40;;;;;;5013050;28;20780;-50
2023/05/16 11:04:12;;;;;;;3.85;3.38;;;15.70;56.50;;;;;;5013317;28;20231;-48
2023/05/16 11:06:55;;;;;;;5.05;3.40;;;15.70;56.40;;;;;;5012813;28;20212;-48
2023/05/16 11:09:28;;;;;;;4.68;3.75;;;15.60;56.40;;;;;;5012543;28;20267;-49
2023/05/16 11:12:03;;;;;;;5.10;3.90;;;15.60;56.40;;;;;;5012174;28;20239;-51
2023/05/16 11:14:41;;;;;;;4.47;3.30;;;15.60;56.40;;;;;;4993172;28;20193;-48
2023/05/16 11:17:13;;;;;;;4.95;3.42;;;15.60;56.40;;;;;;4993437;28;20197;-49
2023/05/16 11:19:45;;;;;;;3.92;3.28;;;15.60;56.40;;;;;;4993421;28;20221;-50
2023/05/16 11:22:25;;;;;;;5.97;4.05;;;15.50;56.30;;;;;;4993202;28;20706;-49
2023/05/16 11:24:58;;;;;;;5.32;3.92;;;15.50;56.30;;;;;;4993221;28;20197;-48
2023/05/16 11:27:30;;;;;;;5.10;3.72;;;15.50;56.40;;;;;;4992818;28;20212;-52
2023/05/16 11:30:04;;;;;;;4.22;3.60;;;15.50;56.30;;;;;;4992714;28;20276;-50
2023/05/16 11:32:36;;;;;;;5.50;3.92;;;15.50;56.30;;;;;;4992720;28;20287;-50
2023/05/16 11:35:08;;;;;;;4.93;3.42;;;15.50;56.30;;;;;;4992793;28;20791;-53
2023/05/16 11:37:41;;;;;;;4.45;3.78;;;15.50;56.30;;;;;;4992918;28;20230;-52
2023/05/16 11:40:13;;;;;;;4.10;3.47;;;15.40;56.20;;;;;;4992903;28;20213;-49
2023/05/16 11:42:45;;;;;;;4.53;3.28;;;15.40;56.30;;;;;;4997769;28;20232;-51
2023/05/16 11:45:20;;;;;;;4.85;3.80;;;15.40;56.20;;;;;;5012361;28;20594;-52
2023/05/16 11:47:51;;;;;;;4.88;3.63;;;15.40;56.30;;;;;;5012463;28;20563;-49
2023/05/16 11:50:23;;;;;;;4.72;3.70;;;15.30;56.20;;;;;;5012407;28;20221;-51
2023/05/16 11:52:56;;;;;;;5.32;3.40;;;15.40;56.20;;;;;;5012734;28;20209;-52
2023/05/16 11:55:28;;;;;;;4.93;3.72;;;15.30;56.20;;;;;;5012407;28;20201;-48
2023/05/16 11:58:00;;;;;;;4.65;3.65;;;15.30;56.20;;;;;;5012097;28;20285;-51
2023/05/16 12:00:31;;;;;;;4.95;3.75;;;15.30;56.20;;;;;;5012136;28;20303;-49
2023/05/16 12:03:05;;;;;;;4.18;3.42;;;15.30;56.20;;;;;;5011972;28;20201;-48
2023/05/16 12:05:36;;;;;;;4.53;3.67;;;15.30;56.20;;;;;;5011063;28;20192;-51
2023/05/16 12:08:11;;;;;;;5.18;3.70;;;15.30;56.20;;;;;;5011520;28;20200;-49
2023/05/16 12:10:42;;;;;;;5.22;3.83;;;15.20;56.10;;;;;;5011911;28;20307;-49
2023/05/16 12:13:13;;;;;;;5.18;4.03;;;15.20;56.10;;;;;;5011713;28;20208;-48
2023/05/16 12:15:43;;;;;;;4.32;3.35;;;15.20;56.10;;;;;;5012232;28;20731;-50
2023/05/16 12:18:14;;;;;;;4.68;3.47;;;15.20;56.10;;;;;;5011851;28;20842;-48
2023/05/16 12:20:46;;;;;;;5.95;3.83;;;15.20;56.10;;;;;;5011099;28;20217;-48
2023/05/16 12:23:19;;;;;;;5.55;3.78;;;15.10;56.00;;;;;;5011616;28;20201;-52
2023/05/16 12:25:51;;;;;;;4.45;3.83;;;15.10;56.00;;;;;;5011937;28;20208;-48
2023/05/16 12:28:22;;;;;;;5.32;3.58;;;15.10;56.00;;;;;;5011874;28;20231;-53
2023/05/16 12:30:53;;;;;;;4.75;3.70;;;15.10;56.00;;;;;;5011506;28;20225;-48
2023/05/16 12:33:23;;;;;;;5.03;3.72;;;15.10;56.00;;;;;;5011363;28;20661;-53
2023/05/16 12:35:54;;;;;;;4.05;3.22;;;15.00;56.00;;;;;;5011656;28;20197;-48
2023/05/16 12:38:27;;;;;;;4.50;3.33;;;15.00;56.00;;;;;;5011887;28;20653;-51
2023/05/16 12:41:01;;;;;;;4.28;3.47;;;15.00;56.00;;;;;;5011310;28;20703;-51
2023/05/16 12:43:32;;;;;;;4.28;3.50;;;15.00;56.00;;;;;;5011293;28;20226;-48
2023/05/16 12:46:03;;;;;;;4.70;3.40;;;15.00;56.00;;;;;;5014402;28;20204;-47
2023/05/16 12:48:36;;;;;;;3.70;3.25;;;15.00;56.00;;;;;;5015650;28;20586;-50
2023/05/16 12:51:16;;;;;;;3.83;3.08;;;15.00;56.00;;;;;;5015246;28;20204;-48
2023/05/16 12:53:50;;;;;;;3.92;3.00;;;15.00;56.00;;;;;;5015391;28;20201;-48
2023/05/16 12:56:20;;;;;;;4.15;2.97;;;14.90;56.00;;;;;;5015171;28;20262;-49
2023/05/16 12:58:53;;;;;;;3.97;2.95;;;15.00;56.00;;;;;;5015137;28;20204;-53
2023/05/16 13:01:24;;;;;;;4.28;3.38;;;14.90;56.00;;;;;;5015502;28;20224;-49
2023/05/16 13:03:54;;;;;;;3.67;3.30;;;14.90;56.00;;;;;;5015578;28;20212;-52
2023/05/16 13:06:25;;;;;;;5.00;3.47;;;14.90;56.00;;;;;;5014832;28;20207;-49
2023/05/16 13:08:58;;;;;;;4.45;3.35;;;14.90;55.90;;;;;;5014999;28;20611;-54
2023/05/16 13:11:28;;;;;;;4.20;3.22;;;14.90;56.00;;;;;;5014756;28;20211;-50
2023/05/16 13:13:59;;;;;;;3.78;2.85;;;14.80;55.90;;;;;;5014652;28;20613;-48